Amargosa Valley, Nevada Weather observations

Data are for observation ending at time listed.
 Day   Time    Ave.   Ave.  Ave.  Vector   Max.   Stn.    Total    Solar   Ave.  
  of    of     Air    Rel.  Wind   Wind    Wind   Baro.  Precip.   Rad.    Soil  
Year   Day     Temp.  Hum.  Speed  Dir.    Gust   Pres.                    Temp. 
2014   (PST)    F      %     mph   deg.    mph     mb.     in.     W/m2     F   
------------------------------------------------------------------------------
 113    8:10   61.1    18    5.4   322     12.8   929.4    0.00     562    71.5
 113    8:20   61.7    17    7.4   318     17.2   929.5    0.00     595    71.4
 113    8:30   61.6    17    8.9   314     20.8   929.6    0.00     623    71.3
 113    8:40   61.6    17    9.9   311     21.2   929.5    0.00     654    71.3
 113    8:50   62.7    16    6.5   320     19.6   929.5    0.00     683    71.2
 113    9:00   62.8    16    9.2   310     28.9   929.4    0.00     709    71.2
 113    9:10   64.4    15    4.0   319     14.8   929.7    0.00     738    71.1
 113    9:20   64.5    15    5.5   334     18.8   929.6    0.00     762    71.1
 113    9:30   65.2    14    3.8    52      7.8   929.6    0.00     790    71.1
 113    9:40   66.1    13    2.8   335     16.1   929.7    0.00     807    71.0
 113    9:50   66.2    13    5.0   334     14.9   929.7    0.00     832    71.0
 113   10:00   67.1    13    3.1   359      7.5   929.7    0.00     852    71.0
 113   10:10   66.6    13    6.0   312     13.7   929.7    0.00     873    71.0
 113   10:20   68.0    13    3.2   323      9.8   929.8    0.00     891    71.0
 113   10:30   67.2    13    6.9   314     15.1   929.7    0.00     905    71.1
 113   10:40   66.9    13    8.7   307     16.8   929.6    0.00     920    71.1
 113   10:50   67.2    13    7.2   310     16.5   929.5    0.00     934    71.1
 113   11:00   68.6    12    5.2   317     14.1   929.4    0.00     943    71.1
 113   11:10   67.8    13    8.1   307     17.2   929.3    0.00     952    71.2
 113   11:20   68.7    12    6.3   311     19.4   929.1    0.00     958    71.2
 113   11:30   69.5    12    5.3   314     13.1   929.0    0.00     964    71.2
 113   11:40   70.0    12    3.9   322     10.1   928.9    0.00     969    71.2
 113   11:50   71.2    12    3.6   319     12.8   928.7    0.00     971    71.3
 113   12:00   70.0    12    5.3   312     16.4   928.6    0.00     972    71.3
 113   12:10   70.1    12    7.7   305     16.9   928.6    0.00     971    71.4
 113   12:20   70.9    11    6.6   315     18.9   928.5    0.00     967    71.5
 113   12:30   71.0    12    8.7   310     18.0   928.4    0.00     963    71.7
 113   12:40   70.9    12    7.3   306     17.1   928.3    0.00     955    71.8
 113   12:50   72.1    11    5.6   298     16.7   928.2    0.00     947    72.0
 113   13:00   72.3    11    4.4   302     10.8   928.2    0.00     937    72.2
 113   13:10   72.8    11    5.0   308     14.0   928.0    0.00     925    72.4
 113   13:20   72.4    11    6.0   313     17.2   928.0    0.00     909    72.7
 113   13:30   72.2    11    3.7   200      9.3   928.0    0.00     893    72.9
 113   13:40   72.6    11    3.8   297     15.9   927.8    0.00     876    73.1
 113   13:50   74.3    11    5.9   308     15.1   927.7    0.00     861    73.4
 113   14:00   74.1    11    3.3   320     11.8   927.6    0.00     842    73.7
 113   14:10   73.9    11    3.4   311      8.3   927.5    0.00     811    73.9
 113   14:20   73.8    11    3.1   289      9.0   927.3    0.00     784    74.2
 113   14:30   74.3    10    3.5   302     11.2   927.2    0.00     755    74.5
 113   14:40   74.0    10    6.1   311     14.0   927.1    0.00     714    74.8
 113   14:50   73.7    10    5.4   304     18.3   927.1    0.00     697    75.1
 113   15:00   73.5    10    5.5   304     13.7   927.0    0.00     656    75.4
 113   15:10   74.1    10    3.1   313     12.3   927.0    0.00     590    75.7
 113   15:20   74.6    10    5.1   319     13.2   926.9    0.00     341    75.9
 113   15:30   74.5    10    3.9   296     14.2   926.7    0.00     118    76.2
 113   15:40   73.1    11    4.9   293     12.6   926.6    0.00      89    76.4
 113   15:50   73.6    11    4.0   286      9.5   926.5    0.00      83    76.7
 113   16:00   73.3    11    4.9   238     13.3   926.4    0.00      70    76.8
 113   16:10   73.5    11    4.5   246     14.8   926.3    0.00      64    77.0
 113   16:20   73.8    11    3.4   291      8.6   926.3    0.00      64    77.1
 113   16:30   73.9    10    2.6   277      6.9   926.2    0.00      71    77.3
 113   16:40   73.8    11    3.3   250      9.3   926.2    0.00     122    77.4
 113   16:50   74.1    10    3.9   302     11.2   926.2    0.00     101    77.4
 113   17:00   74.0    10    4.1   298     10.9   926.3    0.00      67    77.5
 113   17:10   73.8    10    2.3   284      6.9   926.2    0.00      63    77.5
 113   17:20   73.9    10    2.4   293      8.8   926.2    0.00      64    77.6
 113   17:30   73.9    10    2.8   298      8.7   926.2    0.00      64    77.6
 113   17:40   73.6    10    2.3   282      7.5   926.2    0.00      64    77.6
 113   17:50   73.3    10    2.1   257      5.8   926.2    0.00      63    77.6
 113   18:00   73.1    10    3.1   237      7.6   926.2    0.00      37    77.6
 113   18:10   72.8    10    3.3   236      6.3   926.2    0.00      27    77.6
 113   18:20   72.5    10    2.8   238      5.5   926.2    0.00      16    77.6
 113   18:30   71.9    11    3.6   234      5.4   926.2    0.00       9    77.6
 113   18:40   71.3    11    2.7   223      4.0   926.2    0.00       4    77.6
 113   18:50   70.5    11    2.7   227      4.2   926.3    0.00       0    77.5
 113   19:00   69.7    11    2.7   216      4.7   926.4    0.00       0    77.5
 113   19:10   69.1    12    2.6   204      3.4   926.5    0.00       0    77.5
 113   19:20   67.5    12    2.3   200      4.2   926.6    0.00       0    77.4
 113   19:30   67.6    12    3.1   204      5.5   926.7    0.00       0    77.4
 113   19:40   65.6    12    2.0   175      3.6   926.8    0.00       0    77.3
 113   19:50   66.1    12    2.1   218      3.3   926.9    0.00       0    77.3
 113   20:00   67.6    12    1.6   204      3.0   927.0    0.00       0    77.2
 113   20:10   66.9    12    0.7   193      1.8   927.1    0.00       0    77.1
 113   20:20   66.1    12    1.9    85      3.9   927.3    0.00       0    77.1
 113   20:30   64.9    13    1.3    41      2.3   927.3    0.00       0    77.0
 113   20:40   63.5    12    1.1    27      3.0   927.3    0.00       0    76.9
 113   20:50   62.0    13    0.8    26      2.1   927.3    0.00       0    76.8
 113   21:00   61.8    13    0.8    31      2.0   927.3    0.00       0    76.7
 113   21:10   62.0    13    1.8    39      3.5   927.3    0.00       0    76.6
 113   21:20   62.0    13    1.2    29      3.3   927.4    0.00       0    76.6
 113   21:30   59.8    13    1.6    29      4.5   927.5    0.00       0    76.5
 113   21:40   59.8    14    2.9    35      4.3   927.5    0.00       0    76.4
 113   21:50   60.6    14    2.3    39      3.7   927.5    0.00       0    76.2
 113   22:00   60.5    14    1.4    34      2.8   927.5    0.00       0    76.2
 113   22:10   59.1    14    1.2    34      3.3   927.5    0.00       0    76.1
 113   22:20   58.2    14    2.3    46      4.4   927.6    0.00       0    76.0
 113   22:30   58.7    14    1.5    73      4.5   927.6    0.00       0    75.9
 113   22:40   58.2    14    2.4    79      4.5   927.7    0.00       0    75.8
 113   22:50   58.2    14    0.5   356      1.4   927.8    0.00       0    75.7
 113   23:00   56.0    15    1.3    18      2.5   927.7    0.00       0    75.6
 113   23:10   56.9    15    1.4    32      3.0   927.8    0.00       0    75.5
 113   23:20   56.4    15    0.3    25      1.8   927.8    0.00       0    75.4
 113   23:30   54.7    16    0.0     8      0.6   927.8    0.00       0    75.3
 113   23:40   53.8    17    0.5    17      1.5   927.8    0.00       0    75.2
 113   23:50   53.6    17    0.9     8      3.7   927.9    0.00       0    75.1
 114    0:00   52.2    17    1.7    22      3.2   927.8    0.00       0    74.9
 114    0:10   52.0    18    1.4    24      3.4   927.8    0.00       0    74.8
 114    0:20   51.9    18    1.4    26      4.7   927.7    0.00       0    74.7
 114    0:30   52.0    18    1.2    24      3.7   927.7    0.00       0    74.6
 114    0:40   52.5    18    2.0    32      3.7   927.7    0.00       0    74.5
 114    0:50   52.5    18    2.4    28      4.7   927.7    0.00       0    74.4
 114    1:00   52.2    18    2.4    28      5.2   927.7    0.00       0    74.3
 114    1:10   51.8    18    2.0    27      5.1   927.7    0.00       0    74.2
 114    1:20   51.2    18    0.7   346      2.1   927.8    0.00       0    74.0
 114    1:30   50.5    18    0.8    10      2.4   927.9    0.00       0    73.9
 114    1:40   50.4    18    1.2    18      4.1   927.8    0.00       0    73.8
 114    1:50   51.0    18    2.8    33      4.5   927.7    0.00       0    73.7
 114    2:00   50.9    19    1.4    26      4.6   927.7    0.00       0    73.6
 114    2:10   49.9    19    0.5     6      2.0   927.6    0.00       0    73.4
 114    2:20   49.9    19    1.1    17      3.1   927.5    0.00       0    73.3
 114    2:30   50.1    19    1.2    22      3.7   927.5    0.00       0    73.2
 114    2:40   50.3    19    2.1    29      5.1   927.5    0.00       0    73.1
 114    2:50   50.1    19    2.1    28      4.3   927.5    0.00       0    73.0
 114    3:00   50.4    19    2.4    30      5.3   927.6    0.00       0    72.9
 114    3:10   50.4    19    2.0    30      4.7   927.6    0.00       0    72.7
 114    3:20   51.2    18    3.2    32      6.1   927.5    0.00       0    72.6
 114    3:30   51.3    18    3.2    36      5.8   927.6    0.00       0    72.5
 114    3:40   51.4    18    2.9    34      4.8   927.5    0.00       0    72.4
 114    3:50   51.0    19    0.9    18      3.8   927.5    0.00       0    72.3
 114    4:00   49.5    20    2.0   320      3.9   927.4    0.00       0    72.2
 114    4:10   48.1    21    1.5   324      4.5   927.4    0.00       0    72.1
 114    4:20   47.7    21    1.6   324      4.4   927.4    0.00       0    72.0
 114    4:30   47.5    21    1.4   324      3.4   927.6    0.00       0    71.9
 114    4:40   48.0    20    1.1   327      3.5   927.7    0.00       0    71.7
 114    4:50   48.1    20    0.5   331      2.0   927.7    0.00       0    71.6
 114    5:00   47.6    20    0.5   323      1.1   927.8    0.00       0    71.5
 114    5:10   46.3    21    1.0   328      2.6   927.8    0.00       5    71.4
 114    5:20   46.5    21    1.5   330      3.5   928.0    0.00      15    71.3
 114    5:30   48.0    20    0.6   327      1.5   928.0    0.00      38    71.2
 114    5:40   48.7    20    0.9   327      2.9   928.1    0.00      67    71.0
 114    5:50   49.5    20    0.6   325      1.8   928.0    0.00     103    70.9
 114    6:00   49.7    20    1.3   325      2.6   928.2    0.00     137    70.8
 114    6:10   51.0    19    1.1   324      2.0   928.3    0.00     168    70.7
 114    6:20   52.3    19    1.9   324      2.8   928.5    0.00     200    70.6
 114    6:30   53.9    18    1.9   321      3.9   928.7    0.00     233    70.4
 114    6:40   56.0    17    1.5   322      3.2   929.0    0.00     266    70.3
 114    6:50   58.1    17    1.5   319      3.7   929.2    0.00     301    70.2
 114    7:00   59.3    16    1.9   320      4.2   929.4    0.00     336    70.1
 114    7:10   60.4    15    2.2   322      4.8   929.5    0.00     371    70.0
 114    7:20   61.8    14    1.8   313      5.7   929.6    0.00     407    69.9
 114    7:30   61.9    14    2.7   312      5.4   929.6    0.00     442    69.8
 114    7:40   62.5    14    2.8   311      6.6   929.7    0.00     476    69.7
 114    7:50   62.8    13    4.2   307      6.7   929.8    0.00     509    69.7
 114    8:00   63.9    13    3.0   307      6.8   929.8    0.00     543    69.6

Return to Amargosa Valley, Nevada graphs page.


Western Regional Climate Center,wrcc@dri.edu